Terminal Aerodrome Forecast
Issued by NWS Chicago, IL

Home | Current Version | Previous Version | Graphics & Text | Print | Product List | Glossary On
Versions: 1 2 3 4 5 6 7 8 9 10 11 12 13 14 15 16 17 18 19 20 21 22 23 24 25 26 27 28 29 30 31 32
000
FTUS43 KLOT 020304 AAB
TAFRFD
TAF AMD
KRFD 020304Z 0203/0224 20005KT P6SM SCT070 BKN200
     FM020800 21009KT P6SM SCT040 BKN120 WS010/26040KT
     FM021300 23013KT P6SM VCSH SCT040 BKN080
     FM021600 21020G32KT P6SM SCT050 SCT100=

USA.gov is the U.S. government's official web portal to all federal, state and local government web resources and services.